Map

Track Data

SID SEASON NUMBER BASIN SUBBASIN NAME ISO_TIME NATURE LAT LON WMO_WIND WMO_PRES WMO_AGENCY TRACK_TYPE DIST2LAND LANDFALL IFLAG USA_AGENCY USA_ATCF_ID USA_LAT USA_LON USA_RECORD USA_STATUS USA_WIND USA_PRES USA_SSHS USA_R34_NE USA_R34_SE USA_R34_SW USA_R34_NW USA_R50_NE USA_R50_SE USA_R50_SW USA_R50_NW USA_R64_NE USA_R64_SE USA_R64_SW USA_R64_NW USA_POCI USA_ROCI USA_RMW USA_EYE TOKYO_LAT TOKYO_LON TOKYO_GRADE TOKYO_WIND TOKYO_PRES TOKYO_R50_DIR TOKYO_R50_LONG TOKYO_R50_SHORT TOKYO_R30_DIR TOKYO_R30_LONG TOKYO_R30_SHORT TOKYO_LAND CMA_LAT CMA_LON CMA_CAT CMA_WIND CMA_PRES HKO_LAT HKO_LON HKO_CAT HKO_WIND HKO_PRES NEWDELHI_LAT NEWDELHI_LON NEWDELHI_GRADE NEWDELHI_WIND NEWDELHI_PRES NEWDELHI_CI NEWDELHI_DP NEWDELHI_POCI REUNION_LAT REUNION_LON REUNION_TYPE REUNION_WIND REUNION_PRES REUNION_TNUM REUNION_CI REUNION_RMW REUNION_R34_NE REUNION_R34_SE REUNION_R34_SW REUNION_R34_NW REUNION_R50_NE REUNION_R50_SE REUNION_R50_SW REUNION_R50_NW REUNION_R64_NE REUNION_R64_SE REUNION_R64_SW REUNION_R64_NW BOM_LAT BOM_LON BOM_TYPE BOM_WIND BOM_PRES BOM_TNUM BOM_CI BOM_RMW BOM_R34_NE BOM_R34_SE BOM_R34_SW BOM_R34_NW BOM_R50_NE BOM_R50_SE BOM_R50_SW BOM_R50_NW BOM_R64_NE BOM_R64_SE BOM_R64_SW BOM_R64_NW BOM_ROCI BOM_POCI BOM_EYE BOM_POS_METHOD BOM_PRES_METHOD NADI_LAT NADI_LON NADI_CAT NADI_WIND NADI_PRES WELLINGTON_LAT WELLINGTON_LON WELLINGTON_WIND WELLINGTON_PRES DS824_LAT DS824_LON DS824_STAGE DS824_WIND DS824_PRES TD9636_LAT TD9636_LON TD9636_STAGE TD9636_WIND TD9636_PRES TD9635_LAT TD9635_LON TD9635_WIND TD9635_PRES TD9635_ROCI NEUMANN_LAT NEUMANN_LON NEUMANN_CLASS NEUMANN_WIND NEUMANN_PRES MLC_LAT MLC_LON MLC_CLASS MLC_WIND MLC_PRES USA_GUST BOM_GUST BOM_GUST_PER REUNION_GUST REUNION_GUST_PER USA_SEAHGT USA_SEARAD_NE USA_SEARAD_SE USA_SEARAD_SW USA_SEARAD_NW STORM_SPEED STORM_DIR
1862315S12062 1863 28 SI MM NOT_NAMED 1862-11-11 06:00:00 NR -12.1000 61.8000 reunion main 996 981 _____O________ -1 -12.1000 61.8000 99 9.90000 2 234
1862315S12062 1863 28 SI MM NOT_NAMED 1862-11-11 09:00:00 NR -12.1621 61.7064 main 981 977 _____P________ -1 -12.1621 61.7064 99 2 236
1862315S12062 1863 28 SI MM NOT_NAMED 1862-11-11 12:00:00 NR -12.2302 61.6074 main 977 962 _____P________ -1 -12.2302 61.6074 99 3 234
1862315S12062 1863 28 SI MM NOT_NAMED 1862-11-11 15:00:00 NR -12.3102 61.4977 main 962 947 _____P________ -1 -12.3102 61.4977 99 3 232
1862315S12062 1863 28 SI MM NOT_NAMED 1862-11-11 18:00:00 NR -12.4083 61.3720 main 947 928 _____P________ -1 -12.4083 61.3720 99 3 230
1862315S12062 1863 28 SI MM NOT_NAMED 1862-11-11 21:00:00 NR -12.5303 61.2248 main 928 904 _____P________ -1 -12.5303 61.2248 99 4 229
1862315S12062 1863 28 SI MM NOT_NAMED 1862-11-12 00:00:00 NR -12.6823 61.0507 main 904 874 _____P________ -1 -12.6823 61.0507 99 5 228
1862315S12062 1863 28 SI MM NOT_NAMED 1862-11-12 03:00:00 NR -12.8702 60.8443 main 870 842 _____P________ -1 -12.8702 60.8443 99 6 226
1862315S12062 1863 28 SI MM NOT_NAMED 1862-11-12 06:00:00 NR -13.1000 60.6000 reunion main 842 799 _____O________ -1 -13.1000 60.6000 99 9.90000 7 225
1862315S12062 1863 28 SI MM NOT_NAMED 1862-11-12 09:00:00 NR -13.3764 60.3163 main 799 756 _____P________ -1 -13.3764 60.3163 99 8 224
1862315S12062 1863 28 SI MM NOT_NAMED 1862-11-12 12:00:00 NR -13.6998 60.0079 main 756 714 _____P________ -1 -13.6998 60.0079 99 9 221
1862315S12062 1863 28 SI MM NOT_NAMED 1862-11-12 15:00:00 NR -14.0695 59.6935 main 704 652 _____P________ -1 -14.0695 59.6935 99 10 217
1862315S12062 1863 28 SI MM NOT_NAMED 1862-11-12 18:00:00 NR -14.4851 59.3922 main 652 600 _____P________ -1 -14.4851 59.3922 99 10 212
1862315S12062 1863 28 SI MM NOT_NAMED 1862-11-12 21:00:00 NR -14.9462 59.1229 main 600 541 _____P________ -1 -14.9462 59.1229 99 11 206
1862315S12062 1863 28 SI MM NOT_NAMED 1862-11-13 00:00:00 NR -15.4524 58.9048 main 530 473 _____P________ -1 -15.4524 58.9048 99 11 198
1862315S12062 1863 28 SI MM NOT_NAMED 1862-11-13 03:00:00 NR -16.0037 58.7572 main 473 405 _____P________ -1 -16.0037 58.7572 99 12 190
1862315S12062 1863 28 SI MM NOT_NAMED 1862-11-13 06:00:00 NR -16.6000 58.7000 reunion main 405 344 _____O________ -1 -16.6000 58.7000 99 9.90000 13 0
1862315S12062 1863 28 SI MM NOT_NAMED 1862-11-13 09:00:00 NR -17.2885 58.7832 main 333 266 _____P________ -1 -17.2885 58.7832 99 15 170
1862315S12062 1863 28 SI MM NOT_NAMED 1862-11-13 12:00:00 NR -18.0359 58.9564 main 271 214 _____P________ -1 -18.0359 58.9564 99 16 165
1862315S12062 1863 28 SI MM NOT_NAMED 1862-11-13 15:00:00 NR -18.8199 59.2058 main 214 194 _____P________ -1 -18.8199 59.2058 99 17 161
1862315S12062 1863 28 SI MM NOT_NAMED 1862-11-13 18:00:00 NR -19.6179 59.5177 main 194 189 _____P________ -1 -19.6179 59.5177 99 17 158
1862315S12062 1863 28 SI MM NOT_NAMED 1862-11-13 21:00:00 NR -20.4074 59.8780 main 219 219 _____P________ -1 -20.4074 59.8780 99 17 155
1862315S12062 1863 28 SI MM NOT_NAMED 1862-11-14 00:00:00 NR -21.1657 60.2720 main 278 278 _____P________ -1 -21.1657 60.2720 99 17 153
1862315S12062 1863 28 SI MM NOT_NAMED 1862-11-14 03:00:00 NR -21.8706 60.6846 main 348 348 _____P________ -1 -21.8706 60.6846 99 15 150
1862315S12062 1863 28 SI MM NOT_NAMED 1862-11-14 06:00:00 NR -22.5000 61.1000 reunion main 416 416 _____O________ -1 -22.5000 61.1000 99 9.90000 14 148
1862315S12062 1863 28 SI MM NOT_NAMED 1862-11-14 09:00:00 NR -23.0127 61.4709 main 481 481 _____P________ -1 -23.0127 61.4709 99 12 144
1862315S12062 1863 28 SI MM NOT_NAMED 1862-11-14 12:00:00 NR -23.4603 61.8568 main 547 547 _____P________ -1 -23.4603 61.8568 99 11 139
1862315S12062 1863 28 SI MM NOT_NAMED 1862-11-14 15:00:00 NR -23.8484 62.2506 main 600 600 _____P________ -1 -23.8484 62.2506 99 10 135
1862315S12062 1863 28 SI MM NOT_NAMED 1862-11-14 18:00:00 NR -24.1828 62.6458 main 651 651 _____P________ -1 -24.1828 62.6458 99 9 131
1862315S12062 1863 28 SI MM NOT_NAMED 1862-11-14 21:00:00 NR -24.4694 63.0352 main 704 704 _____P________ -1 -24.4694 63.0352 99 9 127
1862315S12062 1863 28 SI MM NOT_NAMED 1862-11-15 00:00:00 NR -24.7138 63.4121 main 749 749 _____P________ -1 -24.7138 63.4121 99 8 124
1862315S12062 1863 28 SI MM NOT_NAMED 1862-11-15 03:00:00 NR -24.9221 63.7693 main 795 795 _____P________ -1 -24.9221 63.7693 99 7 122
1862315S12062 1863 28 SI MM NOT_NAMED 1862-11-15 06:00:00 NR -25.1000 64.1000 reunion main 833 833 _____O________ -1 -25.1000 64.1000 99 9.90000 7 120
1862315S12062 1863 28 SI MM NOT_NAMED 1862-11-15 09:00:00 NR -25.2530 64.3990 main 870 870 _____P________ -1 -25.2530 64.3990 99 6 119
1862315S12062 1863 28 SI MM NOT_NAMED 1862-11-15 12:00:00 NR -25.3848 64.6686 main 901 901 _____P________ -1 -25.3848 64.6686 99 5 118
1862315S12062 1863 28 SI MM NOT_NAMED 1862-11-15 15:00:00 NR -25.4984 64.9128 main 924 924 _____P________ -1 -25.4984 64.9128 99 5 117
1862315S12062 1863 28 SI MM NOT_NAMED 1862-11-15 18:00:00 NR -25.5969 65.1357 main 947 947 _____P________ -1 -25.5969 65.1357 99 4 115
1862315S12062 1863 28 SI MM NOT_NAMED 1862-11-15 21:00:00 NR -25.6833 65.3416 main 969 969 _____P________ -1 -25.6833 65.3416 99 4 114
1862315S12062 1863 28 SI MM NOT_NAMED 1862-11-16 00:00:00 NR -25.7607 65.5348 main 992 992 _____P________ -1 -25.7607 65.5348 99 4 114
1862315S12062 1863 28 SI MM NOT_NAMED 1862-11-16 03:00:00 NR -25.8319 65.7195 main 1009 1009 _____P________ -1 -25.8319 65.7195 99 4 113
1862315S12062 1863 28 SI MM NOT_NAMED 1862-11-16 06:00:00 NR -25.9000 65.9000 reunion main 1032 _____O________ -1 -25.9000 65.9000 99 9.90000 4 113

About IBTrACS Database

This database is a web-friendly format of International Best Track Archive for Climate Stewardship (IBTrACS), a global best track data archive curated by NOAA dating back to 1842.

Updated: 2021-11-26